createdAt,value
2022-10-07T00:00:52.826Z,68.73
2022-10-07T00:03:22.929Z,69.12
2022-10-07T00:06:00.808Z,68.87
2022-10-07T00:08:27.640Z,69.07
2022-10-07T00:10:54.156Z,69.46
2022-10-07T00:13:20.704Z,69.30
2022-10-07T00:15:47.280Z,69.64
2022-10-07T00:18:13.721Z,69.47
2022-10-07T00:20:40.877Z,69.29
2022-10-07T00:23:08.040Z,69.59
2022-10-07T00:25:38.106Z,69.12
2022-10-07T00:28:05.608Z,69.28
2022-10-07T00:30:32.538Z,69.02
2022-10-07T00:32:59.019Z,69.00
2022-10-07T00:35:25.524Z,68.92
2022-10-07T00:37:52.004Z,69.40
2022-10-07T00:40:18.475Z,69.62
2022-10-07T00:42:44.917Z,69.16
2022-10-07T00:45:19.290Z,68.73
2022-10-07T00:47:49.783Z,68.49
2022-10-07T00:50:25.822Z,68.30
2022-10-07T00:52:57.531Z,68.22
2022-10-07T00:55:29.237Z,68.21
2022-10-07T00:58:02.618Z,68.39
2022-10-07T01:00:29.288Z,68.67
2022-10-07T01:02:55.974Z,68.81
2022-10-07T01:05:31.031Z,68.55
2022-10-07T01:07:59.482Z,68.65
2022-10-07T01:10:47.753Z,68.15
2022-10-07T01:13:32.849Z,67.73
2022-10-07T01:16:47.809Z,67.26
2022-10-07T01:20:00.169Z,67.31
2022-10-07T01:22:44.727Z,68.11
2022-10-07T01:26:06.819Z,67.20
2022-10-07T01:28:57.969Z,67.28
2022-10-07T01:31:42.593Z,67.04
2022-10-07T01:34:14.144Z,66.73
2022-10-07T01:36:44.475Z,66.78
2022-10-07T01:39:16.534Z,66.53
2022-10-07T01:41:43.035Z,66.40
2022-10-07T01:44:13.738Z,66.36
2022-10-07T01:46:45.952Z,66.54
2022-10-07T01:49:12.387Z,66.43
2022-10-07T01:51:41.935Z,66.46
2022-10-07T01:54:41.188Z,65.75
2022-10-07T01:57:43.528Z,65.91
2022-10-07T02:00:12.987Z,66.77
2022-10-07T02:03:05.435Z,66.51
2022-10-07T02:06:01.341Z,66.49
2022-10-07T02:08:45.212Z,66.66
2022-10-07T02:11:27.855Z,66.30
2022-10-07T02:14:08.061Z,66.27
2022-10-07T02:16:44.511Z,66.24
2022-10-07T02:19:22.666Z,66.48
2022-10-07T02:21:52.986Z,66.35
2022-10-07T02:24:25.757Z,66.13
2022-10-07T02:26:56.590Z,66.32
2022-10-07T02:29:27.049Z,66.27
2022-10-07T02:31:58.550Z,67.17
2022-10-07T02:34:28.447Z,67.37
2022-10-07T02:37:02.879Z,67.14
2022-10-07T02:39:29.689Z,67.62
2022-10-07T02:42:21.792Z,67.31
2022-10-07T02:45:13.329Z,67.67
2022-10-07T02:47:51.803Z,67.31
2022-10-07T02:50:25.276Z,67.37
2022-10-07T02:52:56.041Z,66.87
2022-10-07T02:55:28.202Z,66.36
2022-10-07T02:58:00.560Z,66.11
2022-10-07T03:00:33.340Z,66.19
2022-10-07T03:03:03.507Z,66.21
2022-10-07T03:05:30.147Z,66.17
2022-10-07T03:08:05.970Z,66.09
2022-10-07T03:10:32.935Z,66.01
2022-10-07T03:12:59.396Z,66.26
2022-10-07T03:15:27.338Z,66.19
2022-10-07T03:17:53.838Z,66.30
2022-10-07T03:20:20.276Z,66.63
2022-10-07T03:22:46.779Z,66.81
2022-10-07T03:25:20.722Z,66.54
2022-10-07T03:27:48.573Z,66.19
2022-10-07T03:30:15.090Z,65.79
2022-10-07T03:32:41.708Z,65.77
2022-10-07T03:35:08.574Z,66.05
2022-10-07T03:37:35.047Z,66.16
2022-10-07T03:40:01.518Z,66.04
2022-10-07T03:42:28.068Z,65.70
2022-10-07T03:44:54.515Z,65.63
2022-10-07T03:47:21.663Z,65.48
2022-10-07T03:49:48.111Z,65.10
2022-10-07T03:52:14.698Z,65.41
2022-10-07T03:54:41.550Z,65.19
2022-10-07T03:57:27.978Z,65.27
2022-10-07T03:59:54.807Z,66.03
2022-10-07T04:02:23.325Z,66.07
2022-10-07T04:04:52.600Z,66.34
2022-10-07T04:07:22.558Z,66.21
2022-10-07T04:09:49.083Z,66.44
2022-10-07T04:12:15.709Z,66.44
2022-10-07T04:14:42.252Z,65.91
2022-10-07T04:17:08.723Z,65.73
2022-10-07T04:19:35.457Z,65.55
2022-10-07T04:22:07.632Z,65.52
2022-10-07T04:24:35.173Z,65.64
2022-10-07T04:27:04.824Z,66.04
2022-10-07T04:29:38.097Z,66.02
2022-10-07T04:32:04.690Z,66.43
2022-10-07T04:34:31.171Z,66.32
2022-10-07T04:37:00.866Z,65.96
2022-10-07T04:39:48.965Z,65.98
2022-10-07T04:42:33.699Z,66.32
2022-10-07T04:45:00.222Z,66.72
2022-10-07T04:47:26.663Z,66.75
2022-10-07T04:49:53.714Z,66.81
2022-10-07T04:52:20.794Z,66.54
2022-10-07T04:54:47.210Z,66.58
2022-10-07T04:57:14.557Z,66.30
2022-10-07T04:59:43.043Z,66.23
2022-10-07T05:02:10.016Z,66.17
2022-10-07T05:04:36.955Z,66.27
2022-10-07T05:07:04.458Z,65.89
2022-10-07T05:09:30.971Z,66.60
2022-10-07T05:11:57.406Z,66.70
2022-10-07T05:14:24.018Z,66.19
2022-10-07T05:16:51.550Z,66.72
2022-10-07T05:19:18.019Z,66.79
2022-10-07T05:21:44.501Z,65.86
2022-10-07T05:24:11.148Z,65.91
2022-10-07T05:26:37.850Z,65.69
2022-10-07T05:29:04.324Z,65.78
2022-10-07T05:31:30.788Z,65.69
2022-10-07T05:33:57.263Z,65.46
2022-10-07T05:36:23.900Z,65.44
2022-10-07T05:38:52.938Z,65.24
2022-10-07T05:41:21.668Z,65.93
2022-10-07T05:43:48.181Z,66.04
2022-10-07T05:46:20.435Z,65.79
2022-10-07T05:48:49.744Z,65.86
2022-10-07T05:51:16.351Z,65.64
2022-10-07T05:53:43.151Z,65.99
2022-10-07T05:56:13.956Z,66.25
2022-10-07T05:58:40.996Z,66.03
2022-10-07T06:01:14.389Z,65.69
2022-10-07T06:03:42.517Z,65.58
2022-10-07T06:06:09.671Z,65.94
2022-10-07T06:08:36.801Z,66.24
2022-10-07T06:11:25.235Z,66.12
2022-10-07T06:13:54.571Z,66.29
2022-10-07T06:16:23.129Z,66.59
2022-10-07T06:18:52.294Z,65.97
2022-10-07T06:21:20.716Z,66.16
2022-10-07T06:23:51.974Z,65.88
2022-10-07T06:26:19.894Z,66.21
2022-10-07T06:28:46.445Z,66.48
2022-10-07T06:31:17.481Z,66.17
2022-10-07T06:33:44.033Z,65.93
2022-10-07T06:36:14.387Z,66.41
2022-10-07T06:38:49.298Z,66.35
2022-10-07T06:41:15.909Z,65.98
2022-10-07T06:43:43.016Z,65.95
2022-10-07T06:46:18.425Z,66.71
2022-10-07T06:48:46.629Z,67.96
2022-10-07T06:51:16.359Z,67.37
2022-10-07T06:53:44.199Z,67.06
2022-10-07T06:56:14.120Z,66.46
2022-10-07T06:58:40.781Z,66.03
2022-10-07T07:01:07.348Z,66.26
2022-10-07T07:03:33.821Z,66.07
2022-10-07T07:06:00.319Z,66.57
2022-10-07T07:08:29.055Z,67.29
2022-10-07T07:10:56.118Z,67.41
2022-10-07T07:13:22.645Z,68.13
2022-10-07T07:15:57.496Z,68.67
2022-10-07T07:18:24.710Z,68.93
2022-10-07T07:20:51.684Z,68.74
2022-10-07T07:23:18.274Z,69.06
2022-10-07T07:25:45.835Z,68.87
2022-10-07T07:28:15.461Z,69.38
2022-10-07T07:30:42.945Z,69.48
2022-10-07T07:33:09.936Z,69.55
2022-10-07T07:35:41.208Z,68.96
2022-10-07T07:38:08.544Z,69.72
2022-10-07T07:40:39.666Z,69.86
2022-10-07T07:43:07.728Z,70.90
2022-10-07T07:45:37.620Z,70.76
2022-10-07T07:48:05.096Z,70.34
2022-10-07T07:50:31.664Z,70.62
2022-10-07T07:53:00.031Z,71.32
2022-10-07T07:55:26.494Z,71.44
2022-10-07T07:57:53.010Z,70.97
2022-10-07T08:00:19.705Z,70.51
2022-10-07T08:02:46.478Z,70.28
2022-10-07T08:05:12.971Z,70.51
2022-10-07T08:07:39.896Z,70.72
2022-10-07T08:10:10.150Z,70.30
2022-10-07T08:12:36.605Z,70.24
2022-10-07T08:15:03.184Z,70.82
2022-10-07T08:17:29.631Z,70.62
2022-10-07T08:19:56.108Z,70.71
2022-10-07T08:22:22.624Z,70.30
2022-10-07T08:24:49.060Z,70.67
2022-10-07T08:27:15.558Z,70.92
2022-10-07T08:29:42.062Z,70.95
2022-10-07T08:32:08.620Z,71.14
2022-10-07T08:34:36.368Z,70.91
2022-10-07T08:37:03.331Z,70.15
2022-10-07T08:39:31.043Z,70.23
2022-10-07T08:42:13.093Z,69.81
2022-10-07T08:44:45.050Z,69.82
2022-10-07T08:47:37.989Z,70.42
2022-10-07T08:50:34.134Z,70.38
2022-10-07T08:53:06.786Z,70.85
2022-10-07T08:55:41.573Z,70.75
2022-10-07T08:58:22.107Z,70.86
2022-10-07T09:00:59.208Z,70.86
2022-10-07T09:04:02.276Z,72.05
2022-10-07T09:06:42.719Z,73.01
2022-10-07T09:09:22.299Z,72.92
2022-10-07T09:11:52.387Z,72.22
2022-10-07T09:14:31.079Z,74.44
2022-10-07T09:17:07.422Z,73.86
2022-10-07T09:19:42.436Z,73.21
2022-10-07T09:22:31.894Z,73.91
2022-10-07T09:25:22.438Z,73.63
2022-10-07T09:27:50.386Z,73.52
2022-10-07T09:30:17.723Z,72.80
2022-10-07T09:32:49.099Z,72.91
2022-10-07T09:35:21.934Z,72.46
2022-10-07T09:38:04.059Z,72.06
2022-10-07T09:41:02.810Z,72.10
2022-10-07T09:43:32.531Z,72.59
2022-10-07T09:46:01.203Z,72.30
2022-10-07T09:48:34.660Z,72.45
2022-10-07T09:51:18.141Z,73.38
2022-10-07T09:54:06.750Z,73.26
2022-10-07T09:56:39.684Z,73.10
2022-10-07T09:59:26.976Z,73.16
2022-10-07T10:02:15.153Z,72.90
2022-10-07T10:04:53.992Z,72.16
2022-10-07T10:07:36.070Z,71.93
2022-10-07T10:10:21.317Z,71.07
2022-10-07T10:12:51.646Z,70.94
2022-10-07T10:15:40.635Z,70.44
2022-10-07T10:18:39.414Z,69.97
2022-10-07T10:21:19.591Z,70.03
2022-10-07T10:23:50.693Z,69.30
2022-10-07T10:26:44.766Z,68.86
2022-10-07T10:29:28.343Z,68.68
2022-10-07T10:32:00.839Z,68.79
2022-10-07T10:34:56.625Z,68.14
2022-10-07T10:37:40.052Z,67.54
2022-10-07T10:40:30.729Z,67.32
2022-10-07T10:43:24.743Z,66.85
2022-10-07T10:46:25.944Z,65.88
2022-10-07T10:49:10.622Z,65.69
2022-10-07T10:52:15.074Z,65.79
2022-10-07T10:55:12.718Z,65.76
2022-10-07T10:58:07.709Z,65.49
2022-10-07T11:00:48.567Z,65.59
2022-10-07T11:03:34.061Z,64.27
2022-10-07T11:06:10.620Z,64.42
2022-10-07T11:08:38.615Z,63.71
2022-10-07T11:11:12.086Z,63.75
2022-10-07T11:14:05.444Z,63.42
2022-10-07T11:16:41.286Z,63.05
2022-10-07T11:19:39.957Z,62.90
2022-10-07T11:22:17.543Z,63.12
2022-10-07T11:24:51.527Z,63.04
2022-10-07T11:27:32.514Z,62.20
2022-10-07T11:30:17.127Z,63.06
2022-10-07T11:32:58.570Z,62.97
2022-10-07T11:35:37.477Z,63.28
2022-10-07T11:38:29.205Z,61.96
2022-10-07T11:41:04.250Z,62.04
2022-10-07T11:43:56.992Z,59.99
2022-10-07T11:46:44.679Z,59.28
2022-10-07T11:49:11.065Z,61.49
2022-10-07T11:51:51.282Z,60.72
2022-10-07T11:54:27.344Z,60.88
2022-10-07T11:57:00.208Z,60.96
2022-10-07T11:59:33.920Z,60.75
2022-10-07T12:02:01.702Z,60.90
2022-10-07T12:04:31.094Z,60.32
2022-10-07T12:07:32.239Z,60.20
2022-10-07T12:10:07.521Z,60.31
2022-10-07T12:12:46.560Z,59.94
2022-10-07T12:15:39.705Z,58.99
2022-10-07T12:18:06.079Z,59.85
2022-10-07T12:20:50.923Z,59.62
2022-10-07T12:23:26.175Z,59.62
2022-10-07T12:26:30.248Z,59.31
2022-10-07T12:28:57.727Z,59.82
2022-10-07T12:31:24.088Z,58.99
2022-10-07T12:33:59.301Z,58.13
2022-10-07T12:36:28.457Z,58.32
2022-10-07T12:38:58.343Z,58.23
2022-10-07T12:41:39.989Z,58.76
2022-10-07T12:44:39.051Z,58.96
2022-10-07T12:47:24.750Z,58.72
2022-10-07T12:50:01.134Z,58.65
2022-10-07T12:52:51.973Z,57.40
2022-10-07T12:55:39.511Z,56.08
2022-10-07T12:58:52.109Z,57.50
2022-10-07T13:01:46.658Z,57.51
2022-10-07T13:04:38.828Z,56.79
2022-10-07T13:07:59.762Z,56.93
2022-10-07T13:10:44.477Z,57.25
2022-10-07T13:13:37.524Z,56.51
2022-10-07T13:16:19.172Z,56.68
2022-10-07T13:19:15.337Z,56.89
2022-10-07T13:22:01.486Z,56.55
2022-10-07T13:24:29.117Z,56.37
2022-10-07T13:26:57.080Z,56.31
2022-10-07T13:29:29.047Z,56.20
2022-10-07T13:32:23.637Z,54.87
2022-10-07T13:34:52.214Z,55.52
2022-10-07T13:37:33.655Z,54.50
2022-10-07T13:40:39.774Z,55.25
2022-10-07T13:43:09.225Z,55.41
2022-10-07T13:45:45.019Z,55.61
2022-10-07T13:48:30.847Z,54.98
2022-10-07T13:50:59.909Z,55.24
2022-10-07T13:53:31.781Z,54.90
2022-10-07T13:56:09.079Z,55.19
2022-10-07T13:58:37.285Z,55.84
2022-10-07T14:01:06.846Z,56.27
2022-10-07T14:03:33.413Z,56.33
2022-10-07T14:06:01.303Z,55.77
2022-10-07T14:08:29.177Z,55.64
2022-10-07T14:11:07.316Z,55.23
2022-10-07T14:13:37.699Z,54.95
2022-10-07T14:16:04.248Z,54.68
2022-10-07T14:18:31.751Z,55.08
2022-10-07T14:21:17.409Z,55.17
2022-10-07T14:23:48.610Z,55.34
2022-10-07T14:26:16.501Z,55.38
2022-10-07T14:28:43.646Z,55.52
2022-10-07T14:31:40.006Z,55.38
2022-10-07T14:34:34.735Z,55.85
2022-10-07T14:37:25.443Z,56.28
2022-10-07T14:39:54.826Z,56.43
2022-10-07T14:42:29.168Z,56.17
2022-10-07T14:44:57.742Z,56.84
2022-10-07T14:47:28.221Z,56.44
2022-10-07T14:49:59.273Z,56.89
2022-10-07T14:52:52.834Z,57.00
2022-10-07T14:55:24.574Z,56.63
2022-10-07T14:57:51.085Z,56.94
2022-10-07T15:00:24.093Z,57.32
2022-10-07T15:02:50.754Z,57.63
2022-10-07T15:05:18.895Z,56.81
2022-10-07T15:07:45.579Z,57.34
2022-10-07T15:10:23.597Z,57.18
2022-10-07T15:12:50.418Z,58.15
2022-10-07T15:15:18.115Z,58.04
2022-10-07T15:17:44.909Z,58.35
2022-10-07T15:20:14.645Z,58.07
2022-10-07T15:22:42.002Z,58.06
2022-10-07T15:25:11.405Z,58.09
2022-10-07T15:27:38.242Z,58.21
2022-10-07T15:30:07.120Z,58.51
2022-10-07T15:32:34.096Z,58.88
2022-10-07T15:35:00.558Z,58.72
2022-10-07T15:37:27.514Z,59.31
2022-10-07T15:39:54.702Z,59.67
2022-10-07T15:42:25.799Z,59.73
2022-10-07T15:44:53.087Z,59.78
2022-10-07T15:47:19.581Z,59.64
2022-10-07T15:49:46.049Z,59.77
2022-10-07T15:52:12.939Z,59.59
2022-10-07T15:54:40.173Z,59.70
2022-10-07T15:57:08.240Z,59.56
2022-10-07T15:59:35.360Z,59.83
2022-10-07T16:02:01.981Z,60.42
2022-10-07T16:04:28.572Z,60.33
2022-10-07T16:06:55.318Z,60.98
2022-10-07T16:09:23.284Z,60.75
2022-10-07T16:11:50.262Z,60.95
2022-10-07T16:14:16.882Z,61.13
2022-10-07T16:16:43.468Z,61.45
2022-10-07T16:19:12.120Z,61.47
2022-10-07T16:21:42.130Z,61.22
2022-10-07T16:24:12.471Z,61.25
2022-10-07T16:26:38.964Z,60.80
2022-10-07T16:29:31.433Z,61.29
2022-10-07T16:31:59.040Z,61.80
2022-10-07T16:34:28.261Z,62.34
2022-10-07T16:36:56.684Z,62.45
2022-10-07T16:39:23.978Z,62.36
2022-10-07T16:41:52.527Z,62.24
2022-10-07T16:44:20.846Z,62.43
2022-10-07T16:46:48.543Z,62.35
2022-10-07T16:49:17.964Z,62.75
2022-10-07T16:51:45.827Z,62.55
2022-10-07T16:54:16.920Z,62.30
2022-10-07T16:56:47.929Z,62.75
2022-10-07T16:59:23.444Z,62.17
2022-10-07T17:01:55.246Z,62.23
2022-10-07T17:04:22.200Z,62.55
2022-10-07T17:06:49.096Z,62.66
2022-10-07T17:09:17.314Z,62.98
2022-10-07T17:11:44.049Z,62.72
2022-10-07T17:14:16.182Z,63.21
2022-10-07T17:16:47.590Z,63.33
2022-10-07T17:19:17.951Z,63.60
2022-10-07T17:21:47.581Z,64.02
2022-10-07T17:24:16.652Z,64.41
2022-10-07T17:26:44.481Z,64.34
2022-10-07T17:29:14.306Z,64.35
2022-10-07T17:31:43.401Z,64.15
2022-10-07T17:34:11.956Z,64.76
2022-10-07T17:36:39.717Z,64.61
2022-10-07T17:39:06.582Z,64.47
2022-10-07T17:41:35.682Z,64.24
2022-10-07T17:44:09.139Z,64.65
2022-10-07T17:46:38.965Z,64.40
2022-10-07T17:49:08.661Z,64.76
2022-10-07T17:51:37.274Z,65.22
2022-10-07T17:54:06.158Z,65.41
2022-10-07T17:56:38.231Z,65.59
2022-10-07T17:59:05.314Z,65.45
2022-10-07T18:01:34.396Z,65.37
2022-10-07T18:04:14.795Z,65.09
2022-10-07T18:06:46.718Z,65.21
2022-10-07T18:09:18.463Z,65.59
2022-10-07T18:12:04.496Z,65.52
2022-10-07T18:14:53.477Z,65.56
2022-10-07T18:17:21.323Z,66.16
2022-10-07T18:19:50.860Z,65.95
2022-10-07T18:22:17.348Z,66.26
2022-10-07T18:24:43.887Z,65.68
2022-10-07T18:27:10.326Z,65.56
2022-10-07T18:29:40.099Z,65.65
2022-10-07T18:32:07.768Z,65.58
2022-10-07T18:34:34.534Z,66.04
2022-10-07T18:37:01.309Z,66.20
2022-10-07T18:39:29.470Z,66.15
2022-10-07T18:41:57.993Z,66.42
2022-10-07T18:44:24.716Z,66.60
2022-10-07T18:46:51.922Z,66.77
2022-10-07T18:49:18.548Z,66.38
2022-10-07T18:51:46.983Z,66.17
2022-10-07T18:54:13.695Z,66.04
2022-10-07T18:56:41.503Z,66.35
2022-10-07T18:59:12.936Z,66.92
2022-10-07T19:01:40.109Z,67.01
2022-10-07T19:04:08.915Z,66.70
2022-10-07T19:06:43.792Z,66.61
2022-10-07T19:09:15.342Z,66.81
2022-10-07T19:11:42.427Z,67.37
2022-10-07T19:14:09.233Z,67.53
2022-10-07T19:16:42.867Z,67.38
2022-10-07T19:19:24.455Z,67.53
2022-10-07T19:21:55.226Z,67.94
2022-10-07T19:24:44.756Z,67.83
2022-10-07T19:27:11.200Z,68.51
2022-10-07T19:29:37.798Z,68.22
2022-10-07T19:32:08.059Z,67.75
2022-10-07T19:34:35.202Z,67.21
2022-10-07T19:37:01.815Z,66.62
2022-10-07T19:39:28.362Z,66.85
2022-10-07T19:41:56.104Z,67.16
2022-10-07T19:44:22.565Z,67.08
2022-10-07T19:46:52.293Z,67.10
2022-10-07T19:49:18.757Z,68.57
2022-10-07T19:51:50.378Z,68.10
2022-10-07T19:54:16.882Z,67.90
2022-10-07T19:56:44.410Z,67.86
2022-10-07T19:59:13.876Z,67.98
2022-10-07T20:01:43.991Z,68.29
2022-10-07T20:04:18.526Z,68.22
2022-10-07T20:06:45.081Z,68.60
2022-10-07T20:09:15.606Z,69.02
2022-10-07T20:11:42.992Z,68.87
2022-10-07T20:14:10.317Z,68.58
2022-10-07T20:16:38.958Z,68.43
2022-10-07T20:19:12.200Z,68.10
2022-10-07T20:21:39.270Z,68.50
2022-10-07T20:24:07.844Z,68.96
2022-10-07T20:26:38.346Z,68.79
2022-10-07T20:29:10.053Z,69.29
2022-10-07T20:31:39.708Z,69.76
2022-10-07T20:34:10.135Z,69.80
2022-10-07T20:36:38.660Z,70.12
2022-10-07T20:39:32.483Z,70.17
2022-10-07T20:42:18.278Z,70.26
2022-10-07T20:44:47.690Z,70.12
2022-10-07T20:47:14.266Z,70.31
2022-10-07T20:49:42.058Z,70.35
2022-10-07T20:52:13.919Z,70.01
2022-10-07T20:54:40.583Z,70.40
2022-10-07T20:57:07.176Z,69.53
2022-10-07T20:59:33.673Z,69.73
2022-10-07T21:02:03.828Z,69.94
2022-10-07T21:04:33.308Z,69.79
2022-10-07T21:06:59.834Z,69.84
2022-10-07T21:09:26.498Z,70.01
2022-10-07T21:11:56.076Z,69.92
2022-10-07T21:14:23.201Z,69.95
2022-10-07T21:16:49.764Z,69.68
2022-10-07T21:19:17.011Z,69.75
2022-10-07T21:21:43.458Z,69.34
2022-10-07T21:24:10.691Z,69.41
2022-10-07T21:26:37.587Z,69.48
2022-10-07T21:29:08.003Z,69.00
2022-10-07T21:31:35.546Z,69.29
2022-10-07T21:34:08.039Z,68.75
2022-10-07T21:36:42.653Z,69.20
2022-10-07T21:39:11.943Z,69.31
2022-10-07T21:41:38.735Z,69.42
2022-10-07T21:44:11.292Z,69.22
2022-10-07T21:46:39.927Z,68.96
2022-10-07T21:49:07.654Z,69.23
2022-10-07T21:51:35.448Z,69.89
2022-10-07T21:54:02.935Z,69.83
2022-10-07T21:56:32.236Z,69.97
2022-10-07T21:59:04.211Z,70.17
2022-10-07T22:01:32.138Z,69.46
2022-10-07T22:04:02.066Z,69.43
2022-10-07T22:06:49.959Z,69.81
2022-10-07T22:09:20.860Z,69.51
2022-10-07T22:11:49.269Z,70.00
2022-10-07T22:14:18.508Z,70.20
2022-10-07T22:16:48.116Z,70.77
2022-10-07T22:19:14.876Z,71.17
2022-10-07T22:21:41.523Z,71.18
2022-10-07T22:24:09.173Z,71.02
2022-10-07T22:26:44.259Z,70.90
2022-10-07T22:29:12.949Z,70.74
2022-10-07T22:31:39.487Z,70.08
2022-10-07T22:34:06.912Z,69.81
2022-10-07T22:36:33.647Z,69.27
2022-10-07T22:39:00.275Z,69.67
2022-10-07T22:41:29.034Z,69.66
2022-10-07T22:43:55.678Z,69.34
2022-10-07T22:46:27.925Z,69.12
2022-10-07T22:48:58.475Z,69.27
2022-10-07T22:51:29.089Z,69.88
2022-10-07T22:53:57.195Z,69.79
2022-10-07T22:56:27.912Z,70.04
2022-10-07T22:58:58.785Z,70.98
2022-10-07T23:01:31.128Z,70.94
2022-10-07T23:04:00.668Z,70.75
2022-10-07T23:06:27.700Z,70.50
2022-10-07T23:08:54.373Z,70.61
2022-10-07T23:11:24.426Z,71.31
2022-10-07T23:13:51.874Z,71.09
2022-10-07T23:16:22.587Z,71.05
2022-10-07T23:18:52.744Z,70.68
2022-10-07T23:21:25.429Z,70.93
2022-10-07T23:24:01.675Z,70.75
2022-10-07T23:26:31.437Z,70.54
2022-10-07T23:29:00.506Z,70.48
2022-10-07T23:31:30.372Z,70.74
2022-10-07T23:33:58.614Z,70.18
2022-10-07T23:36:26.718Z,70.09
2022-10-07T23:38:53.927Z,70.69
2022-10-07T23:41:24.662Z,71.04
2022-10-07T23:43:53.604Z,71.11
2022-10-07T23:46:22.327Z,70.55
2022-10-07T23:48:49.619Z,70.17
2022-10-07T23:51:22.843Z,70.45
2022-10-07T23:53:49.738Z,70.63
2022-10-07T23:56:18.460Z,70.80
2022-10-07T23:58:44.917Z,70.90
